sensor_id;sensor_type;location;lat;lon;timestamp;temperature;humidity
43991;DHT22;29654;50.784;20.604;2023-03-01T00:01:27;2.40;49.80
43991;DHT22;29654;50.784;20.604;2023-03-01T00:06:32;2.40;49.90
43991;DHT22;29654;50.784;20.604;2023-03-01T00:11:34;2.40;49.90
43991;DHT22;29654;50.784;20.604;2023-03-01T00:16:39;2.40;50.00
43991;DHT22;29654;50.784;20.604;2023-03-01T00:21:44;2.40;50.20
43991;DHT22;29654;50.784;20.604;2023-03-01T00:26:46;2.40;50.20
43991;DHT22;29654;50.784;20.604;2023-03-01T00:31:49;2.40;50.10
43991;DHT22;29654;50.784;20.604;2023-03-01T00:36:53;2.40;50.20
43991;DHT22;29654;50.784;20.604;2023-03-01T00:41:56;2.40;50.30
43991;DHT22;29654;50.784;20.604;2023-03-01T00:46:58;2.40;50.20
43991;DHT22;29654;50.784;20.604;2023-03-01T00:52:02;2.40;50.20
43991;DHT22;29654;50.784;20.604;2023-03-01T00:57:05;2.40;50.20
43991;DHT22;29654;50.784;20.604;2023-03-01T01:02:08;2.30;50.00
43991;DHT22;29654;50.784;20.604;2023-03-01T01:07:12;2.30;50.10
43991;DHT22;29654;50.784;20.604;2023-03-01T01:12:15;2.20;50.20
43991;DHT22;29654;50.784;20.604;2023-03-01T01:17:17;2.20;50.20
43991;DHT22;29654;50.784;20.604;2023-03-01T01:22:21;2.20;50.20
43991;DHT22;29654;50.784;20.604;2023-03-01T01:27:24;2.10;50.10
43991;DHT22;29654;50.784;20.604;2023-03-01T01:32:26;2.10;50.10
43991;DHT22;29654;50.784;20.604;2023-03-01T01:37:30;2.00;50.00
43991;DHT22;29654;50.784;20.604;2023-03-01T01:42:33;2.00;50.00
43991;DHT22;29654;50.784;20.604;2023-03-01T01:47:36;1.90;50.00
43991;DHT22;29654;50.784;20.604;2023-03-01T01:52:41;1.90;50.10
43991;DHT22;29654;50.784;20.604;2023-03-01T01:57:46;1.80;50.00
43991;DHT22;29654;50.784;20.604;2023-03-01T02:02:54;1.80;50.00
43991;DHT22;29654;50.784;20.604;2023-03-01T02:08:00;1.70;50.00
43991;DHT22;29654;50.784;20.604;2023-03-01T02:13:03;1.70;50.10
43991;DHT22;29654;50.784;20.604;2023-03-01T02:18:07;1.60;50.20
43991;DHT22;29654;50.784;20.604;2023-03-01T02:23:13;1.60;50.40
43991;DHT22;29654;50.784;20.604;2023-03-01T02:28:30;1.60;50.40
43991;DHT22;29654;50.784;20.604;2023-03-01T02:33:35;1.60;50.50
43991;DHT22;29654;50.784;20.604;2023-03-01T02:38:39;1.60;50.40
43991;DHT22;29654;50.784;20.604;2023-03-01T02:43:43;1.60;50.30
43991;DHT22;29654;50.784;20.604;2023-03-01T02:48:48;1.50;50.30
43991;DHT22;29654;50.784;20.604;2023-03-01T02:53:59;1.50;50.40
43991;DHT22;29654;50.784;20.604;2023-03-01T02:59:11;1.50;50.60
43991;DHT22;29654;50.784;20.604;2023-03-01T03:04:16;1.50;50.60
43991;DHT22;29654;50.784;20.604;2023-03-01T03:09:22;1.40;50.40
43991;DHT22;29654;50.784;20.604;2023-03-01T03:14:26;1.40;50.40
43991;DHT22;29654;50.784;20.604;2023-03-01T03:19:29;1.40;50.50
43991;DHT22;29654;50.784;20.604;2023-03-01T03:24:31;1.30;50.40
43991;DHT22;29654;50.784;20.604;2023-03-01T03:29:40;1.30;50.40
43991;DHT22;29654;50.784;20.604;2023-03-01T03:34:42;1.30;50.40
43991;DHT22;29654;50.784;20.604;2023-03-01T03:39:45;1.20;50.40
43991;DHT22;29654;50.784;20.604;2023-03-01T03:44:49;1.20;50.40
43991;DHT22;29654;50.784;20.604;2023-03-01T03:49:51;1.10;50.40
43991;DHT22;29654;50.784;20.604;2023-03-01T03:54:54;1.10;50.50
43991;DHT22;29654;50.784;20.604;2023-03-01T03:59:58;1.10;50.60
43991;DHT22;29654;50.784;20.604;2023-03-01T04:05:00;1.00;50.70
43991;DHT22;29654;50.784;20.604;2023-03-01T04:10:04;1.00;50.80
43991;DHT22;29654;50.784;20.604;2023-03-01T04:15:11;1.00;50.80
43991;DHT22;29654;50.784;20.604;2023-03-01T04:20:19;1.00;50.70
43991;DHT22;29654;50.784;20.604;2023-03-01T04:25:25;1.00;50.70
43991;DHT22;29654;50.784;20.604;2023-03-01T04:30:30;1.00;50.80
43991;DHT22;29654;50.784;20.604;2023-03-01T04:35:37;1.00;50.80
43991;DHT22;29654;50.784;20.604;2023-03-01T04:40:39;0.90;50.70
43991;DHT22;29654;50.784;20.604;2023-03-01T04:45:44;0.90;50.70
43991;DHT22;29654;50.784;20.604;2023-03-01T04:50:47;0.90;50.70
43991;DHT22;29654;50.784;20.604;2023-03-01T04:55:50;0.80;50.60
43991;DHT22;29654;50.784;20.604;2023-03-01T05:00:54;0.80;50.70
43991;DHT22;29654;50.784;20.604;2023-03-01T05:05:58;0.80;50.70
43991;DHT22;29654;50.784;20.604;2023-03-01T05:11:01;0.80;50.80
43991;DHT22;29654;50.784;20.604;2023-03-01T05:16:07;0.80;50.80
43991;DHT22;29654;50.784;20.604;2023-03-01T05:21:13;0.80;50.90
43991;DHT22;29654;50.784;20.604;2023-03-01T05:26:19;0.80;50.90
43991;DHT22;29654;50.784;20.604;2023-03-01T05:31:29;0.80;50.80
43991;DHT22;29654;50.784;20.604;2023-03-01T05:36:32;0.80;50.80
43991;DHT22;29654;50.784;20.604;2023-03-01T05:41:35;0.70;50.80
43991;DHT22;29654;50.784;20.604;2023-03-01T05:46:39;0.70;50.80
43991;DHT22;29654;50.784;20.604;2023-03-01T05:51:42;0.70;50.90
43991;DHT22;29654;50.784;20.604;2023-03-01T05:56:45;0.70;51.00
43991;DHT22;29654;50.784;20.604;2023-03-01T06:01:49;0.80;51.20
43991;DHT22;29654;50.784;20.604;2023-03-01T06:06:51;0.90;51.40
43991;DHT22;29654;50.784;20.604;2023-03-01T06:11:54;1.00;51.60
43991;DHT22;29654;50.784;20.604;2023-03-01T06:16:58;1.10;51.60
43991;DHT22;29654;50.784;20.604;2023-03-01T06:22:00;1.20;51.70
43991;DHT22;29654;50.784;20.604;2023-03-01T06:27:03;1.30;51.80
43991;DHT22;29654;50.784;20.604;2023-03-01T06:32:07;1.50;51.90
43991;DHT22;29654;50.784;20.604;2023-03-01T06:37:10;1.60;52.10
43991;DHT22;29654;50.784;20.604;2023-03-01T06:42:13;1.80;52.10
43991;DHT22;29654;50.784;20.604;2023-03-01T06:47:17;2.00;52.30
43991;DHT22;29654;50.784;20.604;2023-03-01T06:52:20;2.20;52.50
43991;DHT22;29654;50.784;20.604;2023-03-01T06:57:23;2.50;53.30
43991;DHT22;29654;50.784;20.604;2023-03-01T07:02:27;2.80;52.80
43991;DHT22;29654;50.784;20.604;2023-03-01T07:07:29;3.00;52.90
43991;DHT22;29654;50.784;20.604;2023-03-01T07:12:32;3.30;52.80
43991;DHT22;29654;50.784;20.604;2023-03-01T07:17:36;3.60;52.70
43991;DHT22;29654;50.784;20.604;2023-03-01T07:22:40;3.90;52.80
43991;DHT22;29654;50.784;20.604;2023-03-01T07:27:44;4.10;52.70
43991;DHT22;29654;50.784;20.604;2023-03-01T07:32:53;4.40;52.60
43991;DHT22;29654;50.784;20.604;2023-03-01T07:37:56;4.60;52.50
43991;DHT22;29654;50.784;20.604;2023-03-01T07:42:59;4.90;52.40
43991;DHT22;29654;50.784;20.604;2023-03-01T07:48:03;5.10;52.80
43991;DHT22;29654;50.784;20.604;2023-03-01T07:53:06;5.30;52.10
43991;DHT22;29654;50.784;20.604;2023-03-01T07:58:09;5.50;52.00
43991;DHT22;29654;50.784;20.604;2023-03-01T08:03:13;5.70;52.50
43991;DHT22;29654;50.784;20.604;2023-03-01T08:08:15;5.90;51.70
43991;DHT22;29654;50.784;20.604;2023-03-01T08:13:18;6.10;51.60
43991;DHT22;29654;50.784;20.604;2023-03-01T08:18:25;6.30;51.50
43991;DHT22;29654;50.784;20.604;2023-03-01T08:23:27;6.50;51.40
43991;DHT22;29654;50.784;20.604;2023-03-01T08:28:30;6.70;51.20
43991;DHT22;29654;50.784;20.604;2023-03-01T08:33:34;6.80;50.90
43991;DHT22;29654;50.784;20.604;2023-03-01T08:38:37;7.00;50.60
43991;DHT22;29654;50.784;20.604;2023-03-01T08:43:39;7.10;50.60
43991;DHT22;29654;50.784;20.604;2023-03-01T08:48:43;7.20;50.50
43991;DHT22;29654;50.784;20.604;2023-03-01T08:53:47;7.40;50.30
43991;DHT22;29654;50.784;20.604;2023-03-01T08:58:50;7.50;50.10
43991;DHT22;29654;50.784;20.604;2023-03-01T09:03:54;7.70;50.00
43991;DHT22;29654;50.784;20.604;2023-03-01T09:08:56;7.80;49.90
43991;DHT22;29654;50.784;20.604;2023-03-01T09:13:59;7.90;49.90
43991;DHT22;29654;50.784;20.604;2023-03-01T09:19:03;8.00;49.80
43991;DHT22;29654;50.784;20.604;2023-03-01T09:24:06;8.10;49.60
43991;DHT22;29654;50.784;20.604;2023-03-01T09:29:10;8.20;49.50
43991;DHT22;29654;50.784;20.604;2023-03-01T09:34:14;8.30;49.40
43991;DHT22;29654;50.784;20.604;2023-03-01T09:39:20;8.40;49.20
43991;DHT22;29654;50.784;20.604;2023-03-01T09:44:29;8.60;49.20
43991;DHT22;29654;50.784;20.604;2023-03-01T09:49:39;8.70;48.70
43991;DHT22;29654;50.784;20.604;2023-03-01T09:54:52;8.80;48.60
43991;DHT22;29654;50.784;20.604;2023-03-01T10:00:12;8.90;48.50
43991;DHT22;29654;50.784;20.604;2023-03-01T10:05:44;9.10;48.10
43991;DHT22;29654;50.784;20.604;2023-03-01T10:10:51;9.30;47.90
43991;DHT22;29654;50.784;20.604;2023-03-01T10:15:55;9.40;47.70
43991;DHT22;29654;50.784;20.604;2023-03-01T10:21:02;9.50;47.40
43991;DHT22;29654;50.784;20.604;2023-03-01T10:26:32;9.60;47.30
43991;DHT22;29654;50.784;20.604;2023-03-01T10:31:43;9.70;46.70
43991;DHT22;29654;50.784;20.604;2023-03-01T10:36:51;9.90;47.20
43991;DHT22;29654;50.784;20.604;2023-03-01T10:41:58;10.00;46.80
43991;DHT22;29654;50.784;20.604;2023-03-01T10:47:02;10.20;46.80
43991;DHT22;29654;50.784;20.604;2023-03-01T10:52:19;10.80;42.20
43991;DHT22;29654;50.784;20.604;2023-03-01T10:57:31;10.70;43.60
43991;DHT22;29654;50.784;20.604;2023-03-01T11:02:37;10.70;44.10
43991;DHT22;29654;50.784;20.604;2023-03-01T11:07:49;10.70;45.10
43991;DHT22;29654;50.784;20.604;2023-03-01T11:13:04;10.90;44.40
43991;DHT22;29654;50.784;20.604;2023-03-01T11:18:19;11.00;45.00
43991;DHT22;29654;50.784;20.604;2023-03-01T11:23:25;11.10;44.10
43991;DHT22;29654;50.784;20.604;2023-03-01T11:28:30;11.20;44.70
43991;DHT22;29654;50.784;20.604;2023-03-01T11:33:37;11.30;44.80
43991;DHT22;29654;50.784;20.604;2023-03-01T11:38:46;11.50;44.30
43991;DHT22;29654;50.784;20.604;2023-03-01T11:43:52;11.60;44.10
43991;DHT22;29654;50.784;20.604;2023-03-01T11:49:13;11.60;44.10
43991;DHT22;29654;50.784;20.604;2023-03-01T11:54:41;11.70;43.90
43991;DHT22;29654;50.784;20.604;2023-03-01T12:00:11;11.80;43.60
43991;DHT22;29654;50.784;20.604;2023-03-01T12:05:47;11.90;43.10
43991;DHT22;29654;50.784;20.604;2023-03-01T12:11:13;12.00;43.10
43991;DHT22;29654;50.784;20.604;2023-03-01T12:16:40;12.10;43.20
43991;DHT22;29654;50.784;20.604;2023-03-01T12:22:21;12.20;43.10
43991;DHT22;29654;50.784;20.604;2023-03-01T12:27:50;12.30;42.30
43991;DHT22;29654;50.784;20.604;2023-03-01T12:33:16;12.30;42.00
43991;DHT22;29654;50.784;20.604;2023-03-01T12:38:32;12.30;42.20
43991;DHT22;29654;50.784;20.604;2023-03-01T12:43:51;12.40;41.40
43991;DHT22;29654;50.784;20.604;2023-03-01T12:49:08;12.40;41.60
43991;DHT22;29654;50.784;20.604;2023-03-01T12:54:15;12.50;41.90
43991;DHT22;29654;50.784;20.604;2023-03-01T12:59:28;12.40;41.80
43991;DHT22;29654;50.784;20.604;2023-03-01T13:04:42;12.60;41.60
43991;DHT22;29654;50.784;20.604;2023-03-01T13:10:02;12.60;41.50
43991;DHT22;29654;50.784;20.604;2023-03-01T13:15:29;12.70;41.50
43991;DHT22;29654;50.784;20.604;2023-03-01T13:20:44;12.70;40.40
43991;DHT22;29654;50.784;20.604;2023-03-01T13:26:07;12.80;41.40
43991;DHT22;29654;50.784;20.604;2023-03-01T13:37:20;12.90;40.10
43991;DHT22;29654;50.784;20.604;2023-03-01T13:42:43;13.00;40.30
43991;DHT22;29654;50.784;20.604;2023-03-01T13:47:52;13.00;39.90
43991;DHT22;29654;50.784;20.604;2023-03-01T13:53:01;13.00;40.60
43991;DHT22;29654;50.784;20.604;2023-03-01T13:58:16;13.00;40.80
43991;DHT22;29654;50.784;20.604;2023-03-01T14:03:23;13.00;40.00
43991;DHT22;29654;50.784;20.604;2023-03-01T14:08:28;13.00;40.60
43991;DHT22;29654;50.784;20.604;2023-03-01T14:13:40;12.90;40.60
43991;DHT22;29654;50.784;20.604;2023-03-01T14:19:02;13.00;40.10
43991;DHT22;29654;50.784;20.604;2023-03-01T14:24:18;13.00;39.80
43991;DHT22;29654;50.784;20.604;2023-03-01T14:29:25;13.00;40.20
43991;DHT22;29654;50.784;20.604;2023-03-01T14:34:30;12.90;40.40
43991;DHT22;29654;50.784;20.604;2023-03-01T14:39:32;12.90;40.20
43991;DHT22;29654;50.784;20.604;2023-03-01T14:44:35;12.90;40.30
43991;DHT22;29654;50.784;20.604;2023-03-01T14:49:40;13.30;36.50
43991;DHT22;29654;50.784;20.604;2023-03-01T14:54:44;13.10;38.70
43991;DHT22;29654;50.784;20.604;2023-03-01T14:59:49;13.00;38.90
43991;DHT22;29654;50.784;20.604;2023-03-01T15:04:57;12.90;39.10
43991;DHT22;29654;50.784;20.604;2023-03-01T15:10:02;12.80;39.00
43991;DHT22;29654;50.784;20.604;2023-03-01T15:15:32;12.80;39.30
43991;DHT22;29654;50.784;20.604;2023-03-01T15:20:39;12.70;38.10
43991;DHT22;29654;50.784;20.604;2023-03-01T15:25:44;12.70;39.10
43991;DHT22;29654;50.784;20.604;2023-03-01T15:30:54;12.60;39.00
43991;DHT22;29654;50.784;20.604;2023-03-01T15:36:01;12.60;38.90
43991;DHT22;29654;50.784;20.604;2023-03-01T15:41:19;12.50;39.20
43991;DHT22;29654;50.784;20.604;2023-03-01T15:46:27;12.50;39.30
43991;DHT22;29654;50.784;20.604;2023-03-01T15:51:35;12.40;39.20
43991;DHT22;29654;50.784;20.604;2023-03-01T15:56:38;12.30;39.20
43991;DHT22;29654;50.784;20.604;2023-03-01T16:01:41;12.20;39.40
43991;DHT22;29654;50.784;20.604;2023-03-01T16:06:45;12.10;39.50
43991;DHT22;29654;50.784;20.604;2023-03-01T16:11:54;12.00;39.60
43991;DHT22;29654;50.784;20.604;2023-03-01T16:16:57;11.80;39.60
43991;DHT22;29654;50.784;20.604;2023-03-01T16:22:01;11.60;39.60
43991;DHT22;29654;50.784;20.604;2023-03-01T16:27:04;11.40;39.60
43991;DHT22;29654;50.784;20.604;2023-03-01T16:32:07;11.20;39.70
43991;DHT22;29654;50.784;20.604;2023-03-01T16:37:11;11.00;39.80
43991;DHT22;29654;50.784;20.604;2023-03-01T16:42:13;10.80;39.80
43991;DHT22;29654;50.784;20.604;2023-03-01T16:47:17;10.60;40.00
43991;DHT22;29654;50.784;20.604;2023-03-01T16:52:21;10.30;40.10
43991;DHT22;29654;50.784;20.604;2023-03-01T16:57:24;10.10;40.20
43991;DHT22;29654;50.784;20.604;2023-03-01T17:02:27;9.90;40.40
43991;DHT22;29654;50.784;20.604;2023-03-01T17:07:31;9.80;40.60
43991;DHT22;29654;50.784;20.604;2023-03-01T17:12:35;9.60;40.80
43991;DHT22;29654;50.784;20.604;2023-03-01T17:17:38;9.40;41.00
43991;DHT22;29654;50.784;20.604;2023-03-01T17:22:42;9.20;41.20
43991;DHT22;29654;50.784;20.604;2023-03-01T17:27:44;9.10;41.30
43991;DHT22;29654;50.784;20.604;2023-03-01T17:32:47;8.90;41.50
43991;DHT22;29654;50.784;20.604;2023-03-01T17:37:51;8.70;41.70
43991;DHT22;29654;50.784;20.604;2023-03-01T17:42:53;8.60;41.80
43991;DHT22;29654;50.784;20.604;2023-03-01T17:47:56;8.50;42.00
43991;DHT22;29654;50.784;20.604;2023-03-01T17:53:00;8.30;42.10
43991;DHT22;29654;50.784;20.604;2023-03-01T17:58:09;8.20;42.20
43991;DHT22;29654;50.784;20.604;2023-03-01T18:03:13;8.10;42.40
43991;DHT22;29654;50.784;20.604;2023-03-01T18:08:17;8.00;42.50
43991;DHT22;29654;50.784;20.604;2023-03-01T18:13:19;7.90;42.60
43991;DHT22;29654;50.784;20.604;2023-03-01T18:18:22;7.70;42.60
43991;DHT22;29654;50.784;20.604;2023-03-01T18:23:26;7.70;42.70
43991;DHT22;29654;50.784;20.604;2023-03-01T18:28:30;7.50;42.80
43991;DHT22;29654;50.784;20.604;2023-03-01T18:33:34;7.50;42.90
43991;DHT22;29654;50.784;20.604;2023-03-01T18:38:37;7.40;42.90
43991;DHT22;29654;50.784;20.604;2023-03-01T18:43:40;7.30;43.00
43991;DHT22;29654;50.784;20.604;2023-03-01T18:48:46;7.20;43.20
43991;DHT22;29654;50.784;20.604;2023-03-01T18:53:50;7.20;43.40
43991;DHT22;29654;50.784;20.604;2023-03-01T18:58:53;7.10;43.50
43991;DHT22;29654;50.784;20.604;2023-03-01T19:03:56;7.00;43.60
43991;DHT22;29654;50.784;20.604;2023-03-01T19:09:00;7.00;43.70
43991;DHT22;29654;50.784;20.604;2023-03-01T19:14:03;6.90;43.80
43991;DHT22;29654;50.784;20.604;2023-03-01T19:19:06;6.80;43.80
43991;DHT22;29654;50.784;20.604;2023-03-01T19:24:11;6.70;43.90
43991;DHT22;29654;50.784;20.604;2023-03-01T19:29:14;6.60;44.00
43991;DHT22;29654;50.784;20.604;2023-03-01T19:34:17;6.50;44.10
43991;DHT22;29654;50.784;20.604;2023-03-01T19:39:20;6.50;44.10
43991;DHT22;29654;50.784;20.604;2023-03-01T19:44:23;6.40;44.30
43991;DHT22;29654;50.784;20.604;2023-03-01T19:49:26;6.30;44.40
43991;DHT22;29654;50.784;20.604;2023-03-01T19:54:31;6.30;44.50
43991;DHT22;29654;50.784;20.604;2023-03-01T19:59:33;6.20;44.60
43991;DHT22;29654;50.784;20.604;2023-03-01T20:04:36;6.20;44.60
43991;DHT22;29654;50.784;20.604;2023-03-01T20:09:40;6.10;44.70
43991;DHT22;29654;50.784;20.604;2023-03-01T20:14:44;6.00;44.80
43991;DHT22;29654;50.784;20.604;2023-03-01T20:19:48;5.90;44.80
43991;DHT22;29654;50.784;20.604;2023-03-01T20:24:53;5.90;44.90
43991;DHT22;29654;50.784;20.604;2023-03-01T20:29:55;5.80;44.90
43991;DHT22;29654;50.784;20.604;2023-03-01T20:34:58;5.80;45.00
43991;DHT22;29654;50.784;20.604;2023-03-01T20:40:02;5.70;45.10
43991;DHT22;29654;50.784;20.604;2023-03-01T20:45:06;5.70;45.20
43991;DHT22;29654;50.784;20.604;2023-03-01T20:50:10;5.60;45.20
43991;DHT22;29654;50.784;20.604;2023-03-01T20:55:14;5.60;45.30
43991;DHT22;29654;50.784;20.604;2023-03-01T21:00:17;5.50;45.40
43991;DHT22;29654;50.784;20.604;2023-03-01T21:05:21;5.40;45.40
43991;DHT22;29654;50.784;20.604;2023-03-01T21:10:25;5.40;45.50
43991;DHT22;29654;50.784;20.604;2023-03-01T21:15:27;5.30;45.60
43991;DHT22;29654;50.784;20.604;2023-03-01T21:20:30;5.30;45.60
43991;DHT22;29654;50.784;20.604;2023-03-01T21:25:34;5.20;45.60
43991;DHT22;29654;50.784;20.604;2023-03-01T21:30:36;5.10;45.70
43991;DHT22;29654;50.784;20.604;2023-03-01T21:35:39;5.10;45.90
43991;DHT22;29654;50.784;20.604;2023-03-01T21:40:43;5.00;45.90
43991;DHT22;29654;50.784;20.604;2023-03-01T21:45:46;5.00;46.00
43991;DHT22;29654;50.784;20.604;2023-03-01T21:50:53;4.90;46.00
43991;DHT22;29654;50.784;20.604;2023-03-01T21:55:58;4.90;46.20
43991;DHT22;29654;50.784;20.604;2023-03-01T22:01:07;4.80;46.20
43991;DHT22;29654;50.784;20.604;2023-03-01T22:06:13;4.80;46.30
43991;DHT22;29654;50.784;20.604;2023-03-01T22:11:20;4.70;46.30
43991;DHT22;29654;50.784;20.604;2023-03-01T22:16:26;4.70;46.30
43991;DHT22;29654;50.784;20.604;2023-03-01T22:21:29;4.60;46.40
43991;DHT22;29654;50.784;20.604;2023-03-01T22:26:35;4.60;46.40
43991;DHT22;29654;50.784;20.604;2023-03-01T22:31:39;4.60;46.50
43991;DHT22;29654;50.784;20.604;2023-03-01T22:36:43;4.50;47.10
43991;DHT22;29654;50.784;20.604;2023-03-01T22:41:48;4.50;46.50
43991;DHT22;29654;50.784;20.604;2023-03-01T22:46:51;4.40;46.50
43991;DHT22;29654;50.784;20.604;2023-03-01T22:51:53;4.40;46.60
43991;DHT22;29654;50.784;20.604;2023-03-01T22:56:57;4.30;46.70
43991;DHT22;29654;50.784;20.604;2023-03-01T23:02:00;4.30;46.80
43991;DHT22;29654;50.784;20.604;2023-03-01T23:07:02;4.20;46.80
43991;DHT22;29654;50.784;20.604;2023-03-01T23:12:06;4.20;46.90
43991;DHT22;29654;50.784;20.604;2023-03-01T23:17:10;4.20;47.00
43991;DHT22;29654;50.784;20.604;2023-03-01T23:22:14;4.10;46.90
43991;DHT22;29654;50.784;20.604;2023-03-01T23:27:18;4.10;47.00
43991;DHT22;29654;50.784;20.604;2023-03-01T23:32:20;4.00;47.10
43991;DHT22;29654;50.784;20.604;2023-03-01T23:37:28;4.00;47.10
43991;DHT22;29654;50.784;20.604;2023-03-01T23:42:32;4.00;47.30
43991;DHT22;29654;50.784;20.604;2023-03-01T23:47:35;4.00;47.20
43991;DHT22;29654;50.784;20.604;2023-03-01T23:52:38;3.90;47.20
43991;DHT22;29654;50.784;20.604;2023-03-01T23:57:42;3.80;47.10
